createdAt,value
2023-04-17T00:00:28.515Z,81.62
2023-04-17T00:02:55.372Z,81.75
2023-04-17T00:05:23.489Z,81.92
2023-04-17T00:07:50.183Z,82.19
2023-04-17T00:10:17.326Z,82.12
2023-04-17T00:12:45.345Z,81.65
2023-04-17T00:15:14.823Z,82.05
2023-04-17T00:17:44.337Z,81.84
2023-04-17T00:20:13.754Z,82.20
2023-04-17T00:22:40.717Z,82.39
2023-04-17T00:25:13.839Z,82.35
2023-04-17T00:27:44.070Z,82.31
2023-04-17T00:30:13.591Z,82.54
2023-04-17T00:32:40.233Z,82.53
2023-04-17T00:35:07.673Z,82.68
2023-04-17T00:37:35.804Z,82.66
2023-04-17T00:40:03.564Z,82.87
2023-04-17T00:42:30.245Z,82.58
2023-04-17T00:44:57.411Z,83.16
2023-04-17T00:47:26.445Z,83.64
2023-04-17T00:49:53.279Z,83.52
2023-04-17T00:52:30.031Z,83.27
2023-04-17T00:54:58.767Z,83.39
2023-04-17T00:57:28.260Z,83.21
2023-04-17T00:59:57.641Z,83.31
2023-04-17T01:02:25.318Z,83.34
2023-04-17T01:04:52.117Z,83.63
2023-04-17T01:07:19.868Z,83.83
2023-04-17T01:09:46.561Z,83.48
2023-04-17T01:12:26.040Z,83.46
2023-04-17T01:14:54.544Z,83.48
2023-04-17T01:17:27.893Z,83.74
2023-04-17T01:19:55.564Z,84.09
2023-04-17T01:22:22.316Z,84.06
2023-04-17T01:24:49.490Z,84.13
2023-04-17T01:27:16.129Z,83.58
2023-04-17T01:29:45.421Z,83.65
2023-04-17T01:32:15.103Z,84.29
2023-04-17T01:35:18.583Z,84.12
2023-04-17T01:37:45.328Z,84.23
2023-04-17T01:40:14.655Z,84.51
2023-04-17T01:42:44.465Z,84.72
2023-04-17T01:45:13.710Z,84.75
2023-04-17T01:47:45.292Z,84.52
2023-04-17T01:50:15.672Z,84.75
2023-04-17T01:52:45.912Z,84.86
2023-04-17T01:55:15.784Z,84.61
2023-04-17T01:57:45.252Z,84.79
2023-04-17T02:00:15.548Z,84.65
2023-04-17T02:02:44.998Z,85.10
2023-04-17T02:05:15.405Z,85.02
2023-04-17T02:07:47.013Z,84.67
2023-04-17T02:10:14.888Z,84.77
2023-04-17T02:12:43.620Z,84.90
2023-04-17T02:15:11.998Z,85.16
2023-04-17T02:17:38.713Z,85.09
2023-04-17T02:20:07.461Z,85.37
2023-04-17T02:22:34.120Z,85.29
2023-04-17T02:25:00.888Z,85.64
2023-04-17T02:27:27.679Z,85.45
2023-04-17T02:29:54.279Z,84.89
2023-04-17T02:32:21.060Z,85.19
2023-04-17T02:34:47.664Z,85.93
2023-04-17T02:37:14.620Z,85.61
2023-04-17T02:39:48.677Z,85.37
2023-04-17T02:42:15.525Z,85.96
2023-04-17T02:44:49.317Z,85.56
2023-04-17T02:47:16.028Z,85.49
2023-04-17T02:49:46.299Z,85.64
2023-04-17T02:52:15.845Z,85.85
2023-04-17T02:54:44.235Z,85.23
2023-04-17T02:57:13.086Z,85.70
2023-04-17T02:59:39.849Z,85.62
2023-04-17T03:02:07.171Z,86.20
2023-04-17T03:04:34.623Z,86.19
2023-04-17T03:07:01.364Z,86.20
2023-04-17T03:09:27.983Z,86.28
2023-04-17T03:11:54.690Z,86.46
2023-04-17T03:14:21.377Z,86.40
2023-04-17T03:16:48.077Z,86.23
2023-04-17T03:19:14.798Z,86.44
2023-04-17T03:21:44.180Z,86.15
2023-04-17T03:24:18.283Z,85.63
2023-04-17T03:26:45.431Z,86.09
2023-04-17T03:29:14.858Z,86.21
2023-04-17T03:31:43.289Z,85.53
2023-04-17T03:34:10.082Z,86.15
2023-04-17T03:36:36.664Z,85.96
2023-04-17T03:39:03.431Z,86.51
2023-04-17T03:41:30.171Z,86.72
2023-04-17T03:43:57.055Z,86.61
2023-04-17T03:46:26.755Z,86.45
2023-04-17T03:48:56.588Z,86.43
2023-04-17T03:51:24.332Z,86.80
2023-04-17T03:53:51.118Z,86.57
2023-04-17T03:56:19.013Z,86.47
2023-04-17T03:58:45.797Z,86.61
2023-04-17T04:01:16.601Z,86.55
2023-04-17T04:03:44.746Z,86.37
2023-04-17T04:06:12.664Z,86.32
2023-04-17T04:08:40.513Z,87.07
2023-04-17T04:11:07.425Z,86.89
2023-04-17T04:13:34.295Z,86.89
2023-04-17T04:16:01.162Z,86.81
2023-04-17T04:18:27.992Z,86.84
2023-04-17T04:20:54.689Z,87.00
2023-04-17T04:23:21.398Z,87.25
2023-04-17T04:25:49.854Z,86.68
2023-04-17T04:28:17.882Z,87.16
2023-04-17T04:30:50.515Z,86.93
2023-04-17T04:33:20.589Z,87.83
2023-04-17T04:35:48.987Z,87.77
2023-04-17T04:38:17.278Z,87.82
2023-04-17T04:40:50.075Z,87.34
2023-04-17T04:43:16.872Z,87.97
2023-04-17T04:45:44.085Z,87.54
2023-04-17T04:48:12.835Z,88.03
2023-04-17T04:50:39.569Z,87.74
2023-04-17T04:53:06.322Z,87.91
2023-04-17T04:55:33.078Z,87.71
2023-04-17T04:57:59.783Z,86.93
2023-04-17T05:00:26.525Z,87.29
2023-04-17T05:02:53.324Z,86.88
2023-04-17T05:05:20.303Z,87.19
2023-04-17T05:07:46.961Z,87.53
2023-04-17T05:10:13.795Z,87.77
2023-04-17T05:12:42.947Z,87.38
2023-04-17T05:15:10.359Z,87.82
2023-04-17T05:17:37.617Z,87.94
2023-04-17T05:20:07.005Z,87.54
2023-04-17T05:22:33.778Z,87.87
2023-04-17T05:25:01.656Z,88.00
2023-04-17T05:27:28.343Z,87.68
2023-04-17T05:29:55.083Z,87.94
2023-04-17T05:32:22.033Z,87.61
2023-04-17T05:34:49.019Z,87.33
2023-04-17T05:37:15.802Z,87.46
2023-04-17T05:39:45.541Z,87.22
2023-04-17T05:42:15.369Z,86.89
2023-04-17T05:44:44.117Z,86.67
2023-04-17T05:47:10.749Z,86.48
2023-04-17T05:49:37.785Z,86.33
2023-04-17T05:52:04.761Z,86.04
2023-04-17T05:54:31.408Z,85.32
2023-04-17T05:56:57.998Z,85.47
2023-04-17T05:59:25.309Z,84.51
2023-04-17T06:01:52.677Z,84.39
2023-04-17T06:04:19.494Z,83.23
2023-04-17T06:06:46.330Z,82.96
2023-04-17T06:09:15.991Z,82.32
2023-04-17T06:11:44.095Z,80.88
2023-04-17T06:14:12.257Z,80.79
2023-04-17T06:16:38.943Z,79.99
2023-04-17T06:19:05.606Z,80.05
2023-04-17T06:21:32.572Z,80.99
2023-04-17T06:23:59.385Z,80.27
2023-04-17T06:26:26.379Z,79.00
2023-04-17T06:28:52.984Z,78.35
2023-04-17T06:31:19.880Z,78.41
2023-04-17T06:33:47.780Z,78.36
2023-04-17T06:36:14.283Z,77.73
2023-04-17T06:38:43.387Z,76.62
2023-04-17T06:41:10.038Z,75.85
2023-04-17T06:43:36.754Z,75.05
2023-04-17T06:46:03.474Z,73.95
2023-04-17T06:48:30.357Z,74.21
2023-04-17T06:50:57.083Z,73.04
2023-04-17T06:53:23.928Z,71.06
2023-04-17T06:55:50.564Z,71.96
2023-04-17T06:58:17.231Z,70.21
2023-04-17T07:00:44.081Z,70.75
2023-04-17T07:03:13.478Z,67.63
2023-04-17T07:05:40.568Z,68.16
2023-04-17T07:08:07.526Z,65.73
2023-04-17T07:10:34.154Z,66.69
2023-04-17T07:13:00.981Z,63.16
2023-04-17T07:15:30.664Z,62.35
2023-04-17T07:17:57.519Z,61.69
2023-04-17T07:20:24.896Z,58.49
2023-04-17T07:22:51.955Z,58.47
2023-04-17T07:25:19.900Z,58.24
2023-04-17T07:27:46.687Z,58.57
2023-04-17T07:30:14.334Z,57.67
2023-04-17T07:32:43.161Z,57.73
2023-04-17T07:35:10.099Z,57.38
2023-04-17T07:37:37.158Z,56.64
2023-04-17T07:40:05.703Z,57.75
2023-04-17T07:42:32.412Z,57.90
2023-04-17T07:44:59.067Z,58.19
2023-04-17T07:47:25.829Z,58.40
2023-04-17T07:49:52.581Z,57.25
2023-04-17T07:52:19.265Z,56.60
2023-04-17T07:54:46.035Z,55.63
2023-04-17T07:57:15.628Z,55.76
2023-04-17T07:59:44.873Z,56.69
2023-04-17T08:02:12.219Z,55.44
2023-04-17T08:04:40.494Z,53.97
2023-04-17T08:07:10.659Z,53.65
2023-04-17T08:09:37.551Z,54.33
2023-04-17T08:12:04.297Z,54.18
2023-04-17T08:14:31.220Z,54.43
2023-04-17T08:16:58.330Z,52.47
2023-04-17T08:19:25.112Z,52.29
2023-04-17T08:21:51.913Z,54.00
2023-04-17T08:24:19.965Z,53.21
2023-04-17T08:26:47.714Z,53.26
2023-04-17T08:29:14.885Z,55.14
2023-04-17T08:31:44.105Z,53.07
2023-04-17T08:34:15.311Z,51.55
2023-04-17T08:36:46.292Z,53.02
2023-04-17T08:39:16.710Z,53.55
2023-04-17T08:41:52.001Z,53.46
2023-04-17T08:44:21.329Z,52.22
2023-04-17T08:46:49.520Z,52.13
2023-04-17T08:49:16.465Z,51.62
2023-04-17T08:51:44.263Z,51.98
2023-04-17T08:54:15.041Z,52.43
2023-04-17T08:56:42.757Z,52.96
2023-04-17T08:59:09.583Z,54.31
2023-04-17T09:01:37.721Z,54.12
2023-04-17T09:04:04.676Z,54.15
2023-04-17T09:06:50.225Z,54.15
2023-04-17T09:09:17.726Z,52.81
2023-04-17T09:11:44.615Z,52.16
2023-04-17T09:14:30.164Z,48.76
2023-04-17T09:16:57.999Z,51.90
2023-04-17T09:19:24.685Z,52.04
2023-04-17T09:21:54.019Z,51.74
2023-04-17T09:24:48.282Z,50.85
2023-04-17T09:27:24.084Z,50.38
2023-04-17T09:30:02.617Z,49.38
2023-04-17T09:32:31.784Z,49.52
2023-04-17T09:35:00.849Z,48.91
2023-04-17T09:37:53.814Z,48.79
2023-04-17T09:40:22.785Z,48.66
2023-04-17T09:42:57.492Z,48.91
2023-04-17T09:45:25.226Z,46.86
2023-04-17T09:48:01.721Z,48.95
2023-04-17T09:50:28.959Z,47.99
2023-04-17T09:52:57.011Z,47.18
2023-04-17T09:55:26.661Z,48.60
2023-04-17T09:57:54.747Z,49.42
2023-04-17T10:00:23.819Z,47.74
2023-04-17T10:02:52.361Z,48.89
2023-04-17T10:05:20.479Z,48.32
2023-04-17T10:07:47.748Z,49.40
2023-04-17T10:10:26.558Z,50.58
2023-04-17T10:12:56.371Z,49.85
2023-04-17T10:15:25.762Z,49.49
2023-04-17T10:17:56.500Z,48.55
2023-04-17T10:20:23.210Z,49.47
2023-04-17T10:22:56.316Z,49.17
2023-04-17T10:25:29.668Z,48.93
2023-04-17T10:28:00.553Z,47.36
2023-04-17T10:30:49.025Z,47.80
2023-04-17T10:33:15.850Z,47.67
2023-04-17T10:35:46.808Z,48.56
2023-04-17T10:38:13.557Z,47.85
2023-04-17T10:40:44.620Z,46.18
2023-04-17T10:43:20.496Z,45.87
2023-04-17T10:45:57.640Z,45.64
2023-04-17T10:48:38.943Z,46.70
2023-04-17T10:51:29.821Z,46.53
2023-04-17T10:53:57.289Z,47.49
2023-04-17T10:56:27.168Z,48.00
2023-04-17T10:59:03.038Z,48.92
2023-04-17T11:01:47.950Z,48.62
2023-04-17T11:04:23.095Z,48.97
2023-04-17T11:06:52.625Z,49.11
2023-04-17T11:09:21.125Z,49.10
2023-04-17T11:11:47.730Z,48.96
2023-04-17T11:14:19.878Z,49.24
2023-04-17T11:16:48.235Z,51.91
2023-04-17T11:19:19.262Z,50.98
2023-04-17T11:21:48.298Z,51.07
2023-04-17T11:24:28.919Z,49.02
2023-04-17T11:26:59.811Z,48.21
2023-04-17T11:29:27.196Z,49.57
2023-04-17T11:31:55.902Z,49.17
2023-04-17T11:34:23.042Z,49.89
2023-04-17T11:36:58.111Z,50.10
2023-04-17T11:39:29.836Z,51.64
2023-04-17T11:41:59.546Z,51.77
2023-04-17T11:44:26.294Z,53.50
2023-04-17T11:46:55.183Z,51.86
2023-04-17T11:49:28.885Z,51.29
2023-04-17T11:51:58.898Z,51.43
2023-04-17T11:54:29.458Z,51.15
2023-04-17T11:57:03.305Z,52.22
2023-04-17T11:59:37.973Z,52.23
2023-04-17T12:02:07.351Z,53.02
2023-04-17T12:04:36.406Z,52.00
2023-04-17T12:07:04.565Z,52.09
2023-04-17T12:09:32.737Z,54.27
2023-04-17T12:12:01.955Z,53.33
2023-04-17T12:14:28.746Z,50.69
2023-04-17T12:16:55.387Z,50.68
2023-04-17T12:19:22.113Z,51.51
2023-04-17T12:21:48.721Z,51.76
2023-04-17T12:24:18.188Z,50.74
2023-04-17T12:26:49.195Z,52.81
2023-04-17T12:29:16.595Z,52.96
2023-04-17T12:31:45.225Z,52.21
2023-04-17T12:34:12.814Z,52.95
2023-04-17T12:36:42.621Z,50.86
2023-04-17T12:39:09.238Z,51.38
2023-04-17T12:41:36.219Z,51.26
2023-04-17T12:44:03.656Z,53.08
2023-04-17T12:46:30.673Z,53.53
2023-04-17T12:48:59.307Z,54.35
2023-04-17T12:51:28.029Z,53.00
2023-04-17T12:53:55.821Z,51.72
2023-04-17T12:56:22.664Z,52.21
2023-04-17T12:58:49.335Z,53.60
2023-04-17T13:01:16.232Z,52.84
2023-04-17T13:03:46.357Z,52.38
2023-04-17T13:06:17.101Z,51.11
2023-04-17T13:08:45.174Z,52.63
2023-04-17T13:11:12.954Z,52.37
2023-04-17T13:13:39.796Z,50.81
2023-04-17T13:16:06.736Z,51.20
2023-04-17T13:18:33.382Z,50.98
2023-04-17T13:21:00.016Z,50.40
2023-04-17T13:23:27.767Z,50.17
2023-04-17T13:25:54.637Z,50.01
2023-04-17T13:28:21.184Z,49.48
2023-04-17T13:30:47.845Z,50.79
2023-04-17T13:33:14.580Z,51.81
2023-04-17T13:35:44.523Z,52.36
2023-04-17T13:38:13.600Z,52.71
2023-04-17T13:40:43.589Z,52.09
2023-04-17T13:43:10.719Z,52.67
2023-04-17T13:45:39.826Z,52.64
2023-04-17T13:48:15.673Z,50.38
2023-04-17T13:50:45.388Z,50.87
2023-04-17T13:53:16.617Z,50.53
2023-04-17T13:55:45.001Z,50.34
2023-04-17T13:58:14.773Z,49.72
2023-04-17T14:00:43.950Z,50.03
2023-04-17T14:03:16.192Z,50.14
2023-04-17T14:05:44.420Z,49.20
2023-04-17T14:08:12.317Z,50.03
2023-04-17T14:10:38.959Z,51.25
2023-04-17T14:13:07.183Z,49.87
2023-04-17T14:15:34.139Z,51.05
2023-04-17T14:18:01.404Z,51.00
2023-04-17T14:20:28.625Z,49.40
2023-04-17T14:22:56.599Z,48.59
2023-04-17T14:25:23.657Z,50.23
2023-04-17T14:27:52.586Z,50.14
2023-04-17T14:30:20.149Z,50.09
2023-04-17T14:32:47.172Z,51.90
2023-04-17T14:35:15.294Z,50.32
2023-04-17T14:37:43.682Z,50.53
2023-04-17T14:40:13.127Z,50.28
2023-04-17T14:42:51.295Z,49.92
2023-04-17T14:45:23.108Z,48.85
2023-04-17T14:47:51.317Z,49.08
2023-04-17T14:50:19.337Z,47.83
2023-04-17T14:52:46.086Z,47.44
2023-04-17T14:55:16.055Z,48.43
2023-04-17T14:57:46.848Z,46.75
2023-04-17T15:00:14.231Z,46.75
2023-04-17T15:02:44.593Z,46.38
2023-04-17T15:05:13.743Z,45.95
2023-04-17T15:07:43.049Z,45.41
2023-04-17T15:10:12.553Z,44.58
2023-04-17T15:12:41.283Z,42.39
2023-04-17T15:15:09.933Z,42.89
2023-04-17T15:17:38.287Z,43.75
2023-04-17T15:20:06.086Z,44.06
2023-04-17T15:22:32.966Z,44.66
2023-04-17T15:24:59.733Z,45.71
2023-04-17T15:27:26.504Z,46.36
2023-04-17T15:29:53.125Z,47.45
2023-04-17T15:32:21.294Z,47.46
2023-04-17T15:34:49.519Z,48.72
2023-04-17T15:37:18.969Z,50.45
2023-04-17T15:39:46.637Z,50.13
2023-04-17T15:42:17.257Z,50.71
2023-04-17T15:44:45.355Z,51.03
2023-04-17T15:47:14.662Z,51.40
2023-04-17T15:49:43.220Z,51.09
2023-04-17T15:52:10.356Z,51.47
2023-04-17T15:54:37.081Z,52.54
2023-04-17T15:57:03.760Z,52.90
2023-04-17T15:59:33.635Z,52.60
2023-04-17T16:02:00.675Z,52.44
2023-04-17T16:04:27.597Z,53.05
2023-04-17T16:06:55.065Z,53.61
2023-04-17T16:09:24.478Z,53.86
2023-04-17T16:11:51.519Z,55.04
2023-04-17T16:14:18.208Z,56.13
2023-04-17T16:16:46.406Z,56.02
2023-04-17T16:19:15.788Z,56.53
2023-04-17T16:21:44.467Z,57.79
2023-04-17T16:24:13.373Z,58.39
2023-04-17T16:26:43.576Z,59.28
2023-04-17T16:29:14.461Z,59.71
2023-04-17T16:31:42.859Z,59.65
2023-04-17T16:34:09.988Z,60.58
2023-04-17T16:36:37.959Z,60.24
2023-04-17T16:39:05.169Z,61.55
2023-04-17T16:41:32.984Z,60.87
2023-04-17T16:44:02.050Z,61.31
2023-04-17T16:46:40.276Z,61.63
2023-04-17T16:49:17.686Z,61.47
2023-04-17T16:51:45.441Z,60.99
2023-04-17T16:54:13.801Z,61.89
2023-04-17T16:56:47.520Z,61.88
2023-04-17T16:59:14.346Z,62.48
2023-04-17T17:01:43.007Z,62.91
2023-04-17T17:04:13.292Z,63.64
2023-04-17T17:06:40.071Z,63.52
2023-04-17T17:09:06.714Z,63.36
2023-04-17T17:11:33.571Z,63.95
2023-04-17T17:14:01.699Z,63.18
2023-04-17T17:16:28.850Z,62.35
2023-04-17T17:18:55.608Z,63.12
2023-04-17T17:21:23.302Z,63.46
2023-04-17T17:23:49.916Z,63.61
2023-04-17T17:26:17.429Z,63.50
2023-04-17T17:28:50.859Z,63.36
2023-04-17T17:31:17.888Z,64.06
2023-04-17T17:33:44.790Z,63.97
2023-04-17T17:36:16.096Z,63.92
2023-04-17T17:38:45.646Z,64.76
2023-04-17T17:41:14.313Z,64.96
2023-04-17T17:43:40.915Z,64.99
2023-04-17T17:46:10.420Z,65.48
2023-04-17T17:48:39.625Z,65.61
2023-04-17T17:51:06.280Z,66.40
2023-04-17T17:53:33.091Z,66.08
2023-04-17T17:55:59.770Z,66.36
2023-04-17T17:58:27.433Z,66.64
2023-04-17T18:00:54.336Z,67.35
2023-04-17T18:03:21.314Z,68.17
2023-04-17T18:05:48.155Z,68.20
2023-04-17T18:08:14.953Z,68.54
2023-04-17T18:10:43.430Z,68.75
2023-04-17T18:13:09.821Z,68.51
2023-04-17T18:15:36.761Z,69.38
2023-04-17T18:18:03.675Z,69.34
2023-04-17T18:20:30.493Z,69.97
2023-04-17T18:22:57.696Z,69.37
2023-04-17T18:25:24.374Z,69.71
2023-04-17T18:27:51.036Z,70.74
2023-04-17T18:30:18.689Z,70.39
2023-04-17T18:32:45.384Z,70.23
2023-04-17T18:35:13.302Z,71.01
2023-04-17T18:37:39.941Z,71.48
2023-04-17T18:40:07.969Z,71.05
2023-04-17T18:42:35.677Z,71.80
2023-04-17T18:45:03.068Z,71.48
2023-04-17T18:47:30.073Z,71.66
2023-04-17T18:49:56.773Z,71.62
2023-04-17T18:52:23.619Z,72.18
2023-04-17T18:54:51.237Z,72.35
2023-04-17T18:57:17.888Z,71.78
2023-04-17T18:59:45.961Z,71.91
2023-04-17T19:02:16.075Z,72.12
2023-04-17T19:04:43.953Z,73.05
2023-04-17T19:07:13.622Z,72.75
2023-04-17T19:09:40.345Z,73.46
2023-04-17T19:12:07.090Z,72.50
2023-04-17T19:14:33.659Z,72.67
2023-04-17T19:17:00.302Z,73.10
2023-04-17T19:19:26.926Z,73.24
2023-04-17T19:21:53.652Z,73.47
2023-04-17T19:24:20.500Z,73.11
2023-04-17T19:26:47.264Z,73.85
2023-04-17T19:29:17.048Z,73.90
2023-04-17T19:31:44.952Z,73.93
2023-04-17T19:34:13.794Z,74.22
2023-04-17T19:36:40.907Z,74.75
2023-04-17T19:39:08.363Z,74.62
2023-04-17T19:41:35.018Z,74.44
2023-04-17T19:44:01.660Z,74.17
2023-04-17T19:46:29.343Z,74.63
2023-04-17T19:48:56.122Z,74.77
2023-04-17T19:51:23.056Z,74.73
2023-04-17T19:53:49.778Z,74.72
2023-04-17T19:56:16.428Z,75.39
2023-04-17T19:58:46.697Z,74.94
2023-04-17T20:01:15.182Z,75.52
2023-04-17T20:03:44.174Z,75.39
2023-04-17T20:06:11.264Z,74.85
2023-04-17T20:08:38.188Z,75.33
2023-04-17T20:11:06.516Z,75.46
2023-04-17T20:13:33.134Z,75.53
2023-04-17T20:15:59.896Z,75.73
2023-04-17T20:18:27.278Z,75.55
2023-04-17T20:20:53.938Z,75.64
2023-04-17T20:23:20.656Z,75.22
2023-04-17T20:25:47.324Z,75.45
2023-04-17T20:28:13.899Z,75.46
2023-04-17T20:30:43.137Z,75.29
2023-04-17T20:33:09.811Z,75.55
2023-04-17T20:35:36.557Z,75.27
2023-04-17T20:38:03.185Z,75.80
2023-04-17T20:40:29.882Z,75.46
2023-04-17T20:42:56.541Z,75.64
2023-04-17T20:45:23.311Z,75.57
2023-04-17T20:50:20.325Z,76.48
2023-04-17T20:52:47.215Z,76.07
2023-04-17T20:55:15.369Z,76.44
2023-04-17T20:57:42.358Z,76.47
2023-04-17T21:00:09.718Z,76.73
2023-04-17T21:02:36.481Z,76.74
2023-04-17T21:05:03.671Z,77.72
2023-04-17T21:07:30.935Z,77.63
2023-04-17T21:09:57.636Z,78.08
2023-04-17T21:12:24.223Z,77.82
2023-04-17T21:14:50.837Z,77.65
2023-04-17T21:17:17.456Z,77.50
2023-04-17T21:19:44.633Z,77.49
2023-04-17T21:22:13.571Z,78.05
2023-04-17T21:24:40.244Z,78.41
2023-04-17T21:27:06.990Z,78.23
2023-04-17T21:29:33.589Z,78.65
2023-04-17T21:32:00.574Z,79.69
2023-04-17T21:34:27.316Z,79.99
2023-04-17T21:36:54.568Z,80.22
2023-04-17T21:39:21.961Z,80.26
2023-04-17T21:41:48.737Z,80.22
2023-04-17T21:44:15.542Z,80.32
2023-04-17T21:46:47.852Z,80.63
2023-04-17T21:49:14.492Z,80.55
2023-04-17T21:51:42.474Z,80.77
2023-04-17T21:54:10.166Z,80.45
2023-04-17T21:56:36.989Z,81.15
2023-04-17T21:59:03.853Z,81.59
2023-04-17T22:01:30.541Z,81.74
2023-04-17T22:03:57.412Z,81.25
2023-04-17T22:06:25.105Z,81.54
2023-04-17T22:08:51.765Z,81.50
2023-04-17T22:11:18.430Z,81.66
2023-04-17T22:13:47.092Z,82.08
2023-04-17T22:16:14.037Z,81.98
2023-04-17T22:18:40.828Z,82.92
2023-04-17T22:21:07.672Z,82.37
2023-04-17T22:23:34.309Z,82.19
2023-04-17T22:26:01.016Z,82.36
2023-04-17T22:28:31.351Z,82.73
2023-04-17T22:30:59.073Z,82.94
2023-04-17T22:33:26.262Z,82.81
2023-04-17T22:35:53.277Z,83.14
2023-04-17T22:38:21.211Z,83.05
2023-04-17T22:40:48.160Z,83.28
2023-04-17T22:43:15.432Z,83.55
2023-04-17T22:45:44.790Z,83.44
2023-04-17T22:48:13.499Z,83.84
2023-04-17T22:50:40.006Z,83.97
2023-04-17T22:53:07.765Z,83.88
2023-04-17T22:55:34.462Z,84.14
2023-04-17T22:58:02.207Z,83.90
2023-04-17T23:00:30.270Z,83.86
2023-04-17T23:02:57.034Z,84.47
2023-04-17T23:05:23.866Z,84.26
2023-04-17T23:07:51.713Z,84.08
2023-04-17T23:10:20.673Z,83.64
2023-04-17T23:12:47.296Z,84.02
2023-04-17T23:15:14.077Z,83.83
2023-04-17T23:17:40.795Z,84.14
2023-04-17T23:20:07.868Z,84.25
2023-04-17T23:22:35.755Z,84.97
2023-04-17T23:25:02.928Z,84.76
2023-04-17T23:27:30.914Z,84.94
2023-04-17T23:29:59.362Z,84.67
2023-04-17T23:32:26.119Z,84.68
2023-04-17T23:34:52.837Z,84.91
2023-04-17T23:37:20.606Z,85.40
2023-04-17T23:39:48.286Z,85.53
2023-04-17T23:42:15.990Z,85.22
2023-04-17T23:44:45.107Z,86.30
2023-04-17T23:47:14.458Z,86.27
2023-04-17T23:49:41.691Z,86.54
2023-04-17T23:52:09.043Z,86.38
2023-04-17T23:54:35.603Z,86.79
2023-04-17T23:57:04.175Z,86.42
2023-04-17T23:59:30.853Z,86.54
